sensor_id;sensor_type;location;lat;lon;timestamp;P1;durP1;ratioP1;P2;durP2;ratioP2
74152;SDS011;62505;46.070;14.492;2022-08-19T00:00:51;5.28;;;2.35;;
74152;SDS011;62505;46.070;14.492;2022-08-19T00:03:17;5.80;;;2.35;;
74152;SDS011;62505;46.070;14.492;2022-08-19T00:05:44;3.22;;;2.20;;
74152;SDS011;62505;46.070;14.492;2022-08-19T00:08:11;7.65;;;2.50;;
74152;SDS011;62505;46.070;14.492;2022-08-19T00:10:38;4.18;;;2.20;;
74152;SDS011;62505;46.070;14.492;2022-08-19T00:13:05;6.38;;;2.40;;
74152;SDS011;62505;46.070;14.492;2022-08-19T00:15:33;5.95;;;2.38;;
74152;SDS011;62505;46.070;14.492;2022-08-19T00:18:00;4.47;;;2.20;;
74152;SDS011;62505;46.070;14.492;2022-08-19T00:20:27;5.05;;;2.13;;
74152;SDS011;62505;46.070;14.492;2022-08-19T00:22:54;3.53;;;2.15;;
74152;SDS011;62505;46.070;14.492;2022-08-19T00:25:21;4.28;;;2.30;;
74152;SDS011;62505;46.070;14.492;2022-08-19T00:27:49;2.78;;;1.85;;
74152;SDS011;62505;46.070;14.492;2022-08-19T00:30:16;4.38;;;2.22;;
74152;SDS011;62505;46.070;14.492;2022-08-19T00:32:44;5.38;;;2.30;;
74152;SDS011;62505;46.070;14.492;2022-08-19T00:35:12;3.25;;;2.13;;
74152;SDS011;62505;46.070;14.492;2022-08-19T00:37:39;3.50;;;2.05;;
74152;SDS011;62505;46.070;14.492;2022-08-19T00:40:08;5.50;;;2.40;;
74152;SDS011;62505;46.070;14.492;2022-08-19T00:42:37;4.60;;;2.22;;
74152;SDS011;62505;46.070;14.492;2022-08-19T00:45:08;3.40;;;2.00;;
74152;SDS011;62505;46.070;14.492;2022-08-19T00:47:37;3.65;;;2.17;;
74152;SDS011;62505;46.070;14.492;2022-08-19T00:50:06;2.85;;;2.08;;
74152;SDS011;62505;46.070;14.492;2022-08-19T00:52:36;3.67;;;2.13;;
74152;SDS011;62505;46.070;14.492;2022-08-19T00:55:06;5.65;;;2.47;;
74152;SDS011;62505;46.070;14.492;2022-08-19T00:57:36;3.33;;;2.10;;
74152;SDS011;62505;46.070;14.492;2022-08-19T01:00:05;3.88;;;1.80;;
74152;SDS011;62505;46.070;14.492;2022-08-19T01:02:36;3.20;;;2.03;;
74152;SDS011;62505;46.070;14.492;2022-08-19T01:05:05;6.20;;;2.45;;
74152;SDS011;62505;46.070;14.492;2022-08-19T01:07:37;3.55;;;2.15;;
74152;SDS011;62505;46.070;14.492;2022-08-19T01:10:07;4.45;;;2.55;;
74152;SDS011;62505;46.070;14.492;2022-08-19T01:12:37;4.63;;;2.53;;
74152;SDS011;62505;46.070;14.492;2022-08-19T01:15:05;4.68;;;2.40;;
74152;SDS011;62505;46.070;14.492;2022-08-19T01:17:35;3.92;;;2.78;;
74152;SDS011;62505;46.070;14.492;2022-08-19T01:20:04;5.32;;;2.10;;
74152;SDS011;62505;46.070;14.492;2022-08-19T01:22:37;3.80;;;2.33;;
74152;SDS011;62505;46.070;14.492;2022-08-19T01:25:09;4.32;;;2.22;;
74152;SDS011;62505;46.070;14.492;2022-08-19T01:27:37;5.30;;;2.08;;
74152;SDS011;62505;46.070;14.492;2022-08-19T01:30:05;6.65;;;2.53;;
74152;SDS011;62505;46.070;14.492;2022-08-19T01:32:33;6.40;;;2.67;;
74152;SDS011;62505;46.070;14.492;2022-08-19T01:35:00;5.13;;;2.10;;
74152;SDS011;62505;46.070;14.492;2022-08-19T01:37:27;4.90;;;2.38;;
74152;SDS011;62505;46.070;14.492;2022-08-19T01:39:56;4.38;;;2.60;;
74152;SDS011;62505;46.070;14.492;2022-08-19T01:42:23;6.03;;;2.33;;
74152;SDS011;62505;46.070;14.492;2022-08-19T01:44:50;6.03;;;2.20;;
74152;SDS011;62505;46.070;14.492;2022-08-19T01:47:17;4.95;;;2.50;;
74152;SDS011;62505;46.070;14.492;2022-08-19T01:49:44;4.28;;;2.33;;
74152;SDS011;62505;46.070;14.492;2022-08-19T01:52:11;4.20;;;2.47;;
74152;SDS011;62505;46.070;14.492;2022-08-19T01:54:38;5.15;;;2.60;;
74152;SDS011;62505;46.070;14.492;2022-08-19T01:57:08;2.53;;;1.95;;
74152;SDS011;62505;46.070;14.492;2022-08-19T01:59:38;4.60;;;2.53;;
74152;SDS011;62505;46.070;14.492;2022-08-19T02:02:06;5.60;;;2.67;;
74152;SDS011;62505;46.070;14.492;2022-08-19T02:04:33;5.88;;;2.25;;
74152;SDS011;62505;46.070;14.492;2022-08-19T02:07:00;3.25;;;2.10;;
74152;SDS011;62505;46.070;14.492;2022-08-19T02:09:27;4.97;;;2.70;;
74152;SDS011;62505;46.070;14.492;2022-08-19T02:11:54;3.65;;;2.58;;
74152;SDS011;62505;46.070;14.492;2022-08-19T02:14:22;4.35;;;2.03;;
74152;SDS011;62505;46.070;14.492;2022-08-19T02:16:49;4.18;;;2.40;;
74152;SDS011;62505;46.070;14.492;2022-08-19T02:19:16;5.28;;;2.30;;
74152;SDS011;62505;46.070;14.492;2022-08-19T02:21:43;5.90;;;2.53;;
74152;SDS011;62505;46.070;14.492;2022-08-19T02:24:10;6.82;;;2.67;;
74152;SDS011;62505;46.070;14.492;2022-08-19T02:26:37;8.23;;;2.25;;
74152;SDS011;62505;46.070;14.492;2022-08-19T02:29:04;6.07;;;2.55;;
74152;SDS011;62505;46.070;14.492;2022-08-19T02:31:32;6.28;;;2.10;;
74152;SDS011;62505;46.070;14.492;2022-08-19T02:34:00;5.68;;;2.30;;
74152;SDS011;62505;46.070;14.492;2022-08-19T02:36:27;7.40;;;2.28;;
74152;SDS011;62505;46.070;14.492;2022-08-19T02:38:55;4.30;;;2.78;;
74152;SDS011;62505;46.070;14.492;2022-08-19T02:41:22;4.70;;;2.30;;
74152;SDS011;62505;46.070;14.492;2022-08-19T02:43:50;5.80;;;2.65;;
74152;SDS011;62505;46.070;14.492;2022-08-19T02:46:18;7.97;;;2.45;;
74152;SDS011;62505;46.070;14.492;2022-08-19T02:48:47;6.70;;;2.30;;
74152;SDS011;62505;46.070;14.492;2022-08-19T02:51:16;4.82;;;2.10;;
74152;SDS011;62505;46.070;14.492;2022-08-19T02:53:44;4.28;;;2.45;;
74152;SDS011;62505;46.070;14.492;2022-08-19T02:56:11;7.03;;;2.42;;
74152;SDS011;62505;46.070;14.492;2022-08-19T02:58:38;4.80;;;2.55;;
74152;SDS011;62505;46.070;14.492;2022-08-19T03:01:06;5.32;;;2.30;;
74152;SDS011;62505;46.070;14.492;2022-08-19T03:03:33;4.18;;;1.85;;
74152;SDS011;62505;46.070;14.492;2022-08-19T03:06:06;6.38;;;2.42;;
74152;SDS011;62505;46.070;14.492;2022-08-19T03:08:35;5.10;;;2.15;;
74152;SDS011;62505;46.070;14.492;2022-08-19T03:11:03;3.45;;;1.83;;
74152;SDS011;62505;46.070;14.492;2022-08-19T03:13:30;11.30;;;2.00;;
74152;SDS011;62505;46.070;14.492;2022-08-19T03:15:58;6.43;;;2.03;;
74152;SDS011;62505;46.070;14.492;2022-08-19T03:18:25;5.25;;;2.25;;
74152;SDS011;62505;46.070;14.492;2022-08-19T03:20:52;5.13;;;2.08;;
74152;SDS011;62505;46.070;14.492;2022-08-19T03:23:21;5.80;;;2.20;;
74152;SDS011;62505;46.070;14.492;2022-08-19T03:25:49;7.10;;;2.65;;
74152;SDS011;62505;46.070;14.492;2022-08-19T03:28:18;6.75;;;2.30;;
74152;SDS011;62505;46.070;14.492;2022-08-19T03:30:54;4.55;;;1.95;;
74152;SDS011;62505;46.070;14.492;2022-08-19T03:33:27;4.63;;;2.20;;
74152;SDS011;62505;46.070;14.492;2022-08-19T03:36:02;4.03;;;1.90;;
74152;SDS011;62505;46.070;14.492;2022-08-19T03:38:33;4.20;;;2.10;;
74152;SDS011;62505;46.070;14.492;2022-08-19T03:41:04;3.97;;;2.00;;
74152;SDS011;62505;46.070;14.492;2022-08-19T03:43:33;5.45;;;2.38;;
74152;SDS011;62505;46.070;14.492;2022-08-19T03:46:02;4.07;;;1.77;;
74152;SDS011;62505;46.070;14.492;2022-08-19T03:48:31;2.55;;;2.00;;
74152;SDS011;62505;46.070;14.492;2022-08-19T03:50:58;3.80;;;1.77;;
74152;SDS011;62505;46.070;14.492;2022-08-19T03:53:26;4.05;;;1.70;;
74152;SDS011;62505;46.070;14.492;2022-08-19T03:55:55;5.47;;;2.00;;
74152;SDS011;62505;46.070;14.492;2022-08-19T03:58:24;3.80;;;2.13;;
74152;SDS011;62505;46.070;14.492;2022-08-19T04:00:52;5.18;;;1.80;;
74152;SDS011;62505;46.070;14.492;2022-08-19T04:03:19;5.28;;;2.10;;
74152;SDS011;62505;46.070;14.492;2022-08-19T04:05:46;2.50;;;1.70;;
74152;SDS011;62505;46.070;14.492;2022-08-19T04:08:13;4.32;;;1.88;;
74152;SDS011;62505;46.070;14.492;2022-08-19T04:10:45;3.50;;;1.90;;
74152;SDS011;62505;46.070;14.492;2022-08-19T04:13:14;4.18;;;1.63;;
74152;SDS011;62505;46.070;14.492;2022-08-19T04:15:42;4.82;;;2.05;;
74152;SDS011;62505;46.070;14.492;2022-08-19T04:18:11;4.10;;;2.00;;
74152;SDS011;62505;46.070;14.492;2022-08-19T04:20:39;2.60;;;1.63;;
74152;SDS011;62505;46.070;14.492;2022-08-19T04:23:07;7.55;;;2.25;;
74152;SDS011;62505;46.070;14.492;2022-08-19T04:25:35;3.92;;;1.95;;
74152;SDS011;62505;46.070;14.492;2022-08-19T04:28:03;3.50;;;2.08;;
74152;SDS011;62505;46.070;14.492;2022-08-19T04:30:36;3.08;;;1.85;;
74152;SDS011;62505;46.070;14.492;2022-08-19T04:33:04;4.25;;;1.80;;
74152;SDS011;62505;46.070;14.492;2022-08-19T04:35:34;4.57;;;2.03;;
74152;SDS011;62505;46.070;14.492;2022-08-19T04:38:02;4.20;;;1.83;;
74152;SDS011;62505;46.070;14.492;2022-08-19T04:40:29;3.67;;;1.98;;
74152;SDS011;62505;46.070;14.492;2022-08-19T04:43:13;3.70;;;1.60;;
74152;SDS011;62505;46.070;14.492;2022-08-19T04:45:42;4.60;;;1.80;;
74152;SDS011;62505;46.070;14.492;2022-08-19T04:48:09;3.35;;;1.80;;
74152;SDS011;62505;46.070;14.492;2022-08-19T04:50:39;5.10;;;1.98;;
74152;SDS011;62505;46.070;14.492;2022-08-19T04:53:07;5.05;;;1.80;;
74152;SDS011;62505;46.070;14.492;2022-08-19T04:55:38;4.35;;;2.17;;
74152;SDS011;62505;46.070;14.492;2022-08-19T04:58:05;4.93;;;1.73;;
74152;SDS011;62505;46.070;14.492;2022-08-19T05:00:32;4.70;;;1.95;;
74152;SDS011;62505;46.070;14.492;2022-08-19T05:03:01;5.82;;;2.60;;
74152;SDS011;62505;46.070;14.492;2022-08-19T05:05:28;5.07;;;2.28;;
74152;SDS011;62505;46.070;14.492;2022-08-19T05:07:56;6.43;;;2.10;;
74152;SDS011;62505;46.070;14.492;2022-08-19T05:10:23;2.45;;;1.63;;
74152;SDS011;62505;46.070;14.492;2022-08-19T05:12:50;3.78;;;1.85;;
74152;SDS011;62505;46.070;14.492;2022-08-19T05:15:17;2.97;;;1.80;;
74152;SDS011;62505;46.070;14.492;2022-08-19T05:17:44;4.63;;;1.58;;
74152;SDS011;62505;46.070;14.492;2022-08-19T05:20:27;4.82;;;2.33;;
74152;SDS011;62505;46.070;14.492;2022-08-19T05:23:11;4.85;;;1.73;;
74152;SDS011;62505;46.070;14.492;2022-08-19T05:25:42;5.03;;;1.67;;
74152;SDS011;62505;46.070;14.492;2022-08-19T05:28:09;3.70;;;1.80;;
74152;SDS011;62505;46.070;14.492;2022-08-19T05:30:36;4.60;;;1.75;;
74152;SDS011;62505;46.070;14.492;2022-08-19T05:33:03;4.07;;;2.03;;
74152;SDS011;62505;46.070;14.492;2022-08-19T05:35:31;5.25;;;2.10;;
74152;SDS011;62505;46.070;14.492;2022-08-19T05:37:58;4.10;;;2.05;;
74152;SDS011;62505;46.070;14.492;2022-08-19T05:40:25;3.67;;;1.80;;
74152;SDS011;62505;46.070;14.492;2022-08-19T05:42:52;2.85;;;1.83;;
74152;SDS011;62505;46.070;14.492;2022-08-19T05:45:19;5.00;;;2.22;;
74152;SDS011;62505;46.070;14.492;2022-08-19T05:47:46;3.42;;;1.77;;
74152;SDS011;62505;46.070;14.492;2022-08-19T05:50:14;3.35;;;1.92;;
74152;SDS011;62505;46.070;14.492;2022-08-19T05:52:43;2.60;;;1.80;;
74152;SDS011;62505;46.070;14.492;2022-08-19T05:55:11;6.03;;;1.70;;
74152;SDS011;62505;46.070;14.492;2022-08-19T05:57:38;5.97;;;1.65;;
74152;SDS011;62505;46.070;14.492;2022-08-19T06:00:06;4.65;;;1.73;;
74152;SDS011;62505;46.070;14.492;2022-08-19T06:02:35;3.80;;;1.75;;
74152;SDS011;62505;46.070;14.492;2022-08-19T06:05:03;4.40;;;1.83;;
74152;SDS011;62505;46.070;14.492;2022-08-19T06:07:34;10.32;;;3.55;;
74152;SDS011;62505;46.070;14.492;2022-08-19T06:10:02;3.60;;;2.53;;
74152;SDS011;62505;46.070;14.492;2022-08-19T06:12:30;4.78;;;2.67;;
74152;SDS011;62505;46.070;14.492;2022-08-19T06:15:00;14.13;;;3.20;;
74152;SDS011;62505;46.070;14.492;2022-08-19T06:17:28;6.50;;;2.55;;
74152;SDS011;62505;46.070;14.492;2022-08-19T06:19:56;8.40;;;2.40;;
74152;SDS011;62505;46.070;14.492;2022-08-19T06:22:23;7.22;;;2.17;;
74152;SDS011;62505;46.070;14.492;2022-08-19T06:24:50;8.45;;;3.20;;
74152;SDS011;62505;46.070;14.492;2022-08-19T06:27:20;7.70;;;3.13;;
74152;SDS011;62505;46.070;14.492;2022-08-19T06:29:47;5.72;;;2.67;;
74152;SDS011;62505;46.070;14.492;2022-08-19T06:32:15;5.88;;;3.08;;
74152;SDS011;62505;46.070;14.492;2022-08-19T06:34:43;4.97;;;2.80;;
74152;SDS011;62505;46.070;14.492;2022-08-19T06:37:10;5.45;;;2.65;;
74152;SDS011;62505;46.070;14.492;2022-08-19T06:39:38;7.32;;;2.53;;
74152;SDS011;62505;46.070;14.492;2022-08-19T06:42:06;7.30;;;2.60;;
74152;SDS011;62505;46.070;14.492;2022-08-19T06:44:38;6.45;;;3.08;;
74152;SDS011;62505;46.070;14.492;2022-08-19T06:47:07;4.57;;;2.15;;
74152;SDS011;62505;46.070;14.492;2022-08-19T06:49:35;4.55;;;2.22;;
74152;SDS011;62505;46.070;14.492;2022-08-19T06:52:02;6.80;;;2.30;;
74152;SDS011;62505;46.070;14.492;2022-08-19T06:54:31;3.30;;;2.10;;
74152;SDS011;62505;46.070;14.492;2022-08-19T06:56:58;7.40;;;2.22;;
74152;SDS011;62505;46.070;14.492;2022-08-19T06:59:27;6.13;;;2.35;;
74152;SDS011;62505;46.070;14.492;2022-08-19T07:01:59;7.80;;;2.33;;
74152;SDS011;62505;46.070;14.492;2022-08-19T07:04:30;5.00;;;2.00;;
74152;SDS011;62505;46.070;14.492;2022-08-19T07:06:59;3.67;;;2.22;;
74152;SDS011;62505;46.070;14.492;2022-08-19T07:09:32;6.78;;;2.20;;
74152;SDS011;62505;46.070;14.492;2022-08-19T07:12:02;4.97;;;2.10;;
74152;SDS011;62505;46.070;14.492;2022-08-19T07:14:31;5.78;;;2.25;;
74152;SDS011;62505;46.070;14.492;2022-08-19T07:17:02;3.30;;;1.88;;
74152;SDS011;62505;46.070;14.492;2022-08-19T07:19:30;5.82;;;2.10;;
74152;SDS011;62505;46.070;14.492;2022-08-19T07:21:57;6.40;;;1.98;;
74152;SDS011;62505;46.070;14.492;2022-08-19T07:24:27;4.80;;;2.08;;
74152;SDS011;62505;46.070;14.492;2022-08-19T07:26:55;9.00;;;2.45;;
74152;SDS011;62505;46.070;14.492;2022-08-19T07:29:26;8.60;;;2.40;;
74152;SDS011;62505;46.070;14.492;2022-08-19T07:31:54;4.53;;;2.00;;
74152;SDS011;62505;46.070;14.492;2022-08-19T07:34:25;7.95;;;2.38;;
74152;SDS011;62505;46.070;14.492;2022-08-19T07:36:53;4.22;;;1.88;;
74152;SDS011;62505;46.070;14.492;2022-08-19T07:39:25;4.60;;;2.22;;
74152;SDS011;62505;46.070;14.492;2022-08-19T07:41:55;4.05;;;1.70;;
74152;SDS011;62505;46.070;14.492;2022-08-19T07:44:23;5.13;;;2.08;;
74152;SDS011;62505;46.070;14.492;2022-08-19T07:46:51;6.47;;;2.20;;
74152;SDS011;62505;46.070;14.492;2022-08-19T07:49:20;5.40;;;2.17;;
74152;SDS011;62505;46.070;14.492;2022-08-19T07:51:50;7.47;;;1.92;;
74152;SDS011;62505;46.070;14.492;2022-08-19T07:54:20;2.47;;;1.98;;
74152;SDS011;62505;46.070;14.492;2022-08-19T07:56:48;3.45;;;1.95;;
74152;SDS011;62505;46.070;14.492;2022-08-19T07:59:15;5.30;;;2.05;;
74152;SDS011;62505;46.070;14.492;2022-08-19T08:01:43;4.28;;;1.73;;
74152;SDS011;62505;46.070;14.492;2022-08-19T08:04:10;2.95;;;1.65;;
74152;SDS011;62505;46.070;14.492;2022-08-19T08:06:56;3.13;;;2.05;;
74152;SDS011;62505;46.070;14.492;2022-08-19T08:09:41;4.60;;;2.08;;
74152;SDS011;62505;46.070;14.492;2022-08-19T08:12:10;4.18;;;1.73;;
74152;SDS011;62505;46.070;14.492;2022-08-19T08:14:40;3.22;;;1.90;;
74152;SDS011;62505;46.070;14.492;2022-08-19T08:17:08;6.35;;;1.90;;
74152;SDS011;62505;46.070;14.492;2022-08-19T08:19:37;6.15;;;2.10;;
74152;SDS011;62505;46.070;14.492;2022-08-19T08:22:08;5.80;;;1.85;;
74152;SDS011;62505;46.070;14.492;2022-08-19T08:25:00;3.45;;;1.90;;
74152;SDS011;62505;46.070;14.492;2022-08-19T08:27:30;4.82;;;1.98;;
74152;SDS011;62505;46.070;14.492;2022-08-19T08:29:57;3.83;;;2.00;;
74152;SDS011;62505;46.070;14.492;2022-08-19T08:32:24;3.70;;;2.08;;
74152;SDS011;62505;46.070;14.492;2022-08-19T08:34:52;3.70;;;1.70;;
74152;SDS011;62505;46.070;14.492;2022-08-19T08:37:20;3.63;;;1.70;;
74152;SDS011;62505;46.070;14.492;2022-08-19T08:39:48;3.53;;;1.90;;
74152;SDS011;62505;46.070;14.492;2022-08-19T08:42:16;3.40;;;1.70;;
74152;SDS011;62505;46.070;14.492;2022-08-19T08:44:52;3.58;;;1.58;;
74152;SDS011;62505;46.070;14.492;2022-08-19T08:47:22;3.08;;;1.77;;
74152;SDS011;62505;46.070;14.492;2022-08-19T08:49:53;4.10;;;1.77;;
74152;SDS011;62505;46.070;14.492;2022-08-19T08:52:26;4.30;;;1.90;;
74152;SDS011;62505;46.070;14.492;2022-08-19T08:54:57;3.28;;;2.05;;
74152;SDS011;62505;46.070;14.492;2022-08-19T08:57:27;4.35;;;2.08;;
74152;SDS011;62505;46.070;14.492;2022-08-19T09:00:00;4.53;;;1.73;;
74152;SDS011;62505;46.070;14.492;2022-08-19T09:02:31;4.55;;;1.80;;
74152;SDS011;62505;46.070;14.492;2022-08-19T09:04:58;3.50;;;1.58;;
74152;SDS011;62505;46.070;14.492;2022-08-19T09:07:29;2.75;;;1.70;;
74152;SDS011;62505;46.070;14.492;2022-08-19T09:10:10;3.13;;;1.55;;
74152;SDS011;62505;46.070;14.492;2022-08-19T09:12:47;3.08;;;1.95;;
74152;SDS011;62505;46.070;14.492;2022-08-19T09:15:27;5.55;;;1.77;;
74152;SDS011;62505;46.070;14.492;2022-08-19T09:17:59;3.22;;;1.60;;
74152;SDS011;62505;46.070;14.492;2022-08-19T09:20:28;3.85;;;1.60;;
74152;SDS011;62505;46.070;14.492;2022-08-19T09:22:57;4.40;;;1.63;;
74152;SDS011;62505;46.070;14.492;2022-08-19T09:25:24;3.30;;;1.60;;
74152;SDS011;62505;46.070;14.492;2022-08-19T09:27:52;4.22;;;1.80;;
74152;SDS011;62505;46.070;14.492;2022-08-19T09:30:22;4.18;;;2.10;;
74152;SDS011;62505;46.070;14.492;2022-08-19T09:32:50;2.47;;;1.35;;
74152;SDS011;62505;46.070;14.492;2022-08-19T09:35:19;2.70;;;1.40;;
74152;SDS011;62505;46.070;14.492;2022-08-19T09:37:47;1.83;;;1.45;;
74152;SDS011;62505;46.070;14.492;2022-08-19T09:40:17;2.75;;;1.60;;
74152;SDS011;62505;46.070;14.492;2022-08-19T09:42:45;2.83;;;1.60;;
74152;SDS011;62505;46.070;14.492;2022-08-19T09:45:13;3.55;;;1.73;;
74152;SDS011;62505;46.070;14.492;2022-08-19T09:47:41;2.65;;;1.30;;
74152;SDS011;62505;46.070;14.492;2022-08-19T09:50:09;3.30;;;1.52;;
74152;SDS011;62505;46.070;14.492;2022-08-19T09:52:37;2.17;;;1.33;;
74152;SDS011;62505;46.070;14.492;2022-08-19T09:55:07;3.35;;;1.90;;
74152;SDS011;62505;46.070;14.492;2022-08-19T09:57:37;3.05;;;1.73;;
74152;SDS011;62505;46.070;14.492;2022-08-19T10:00:05;2.95;;;1.58;;
74152;SDS011;62505;46.070;14.492;2022-08-19T10:02:35;2.15;;;1.60;;
74152;SDS011;62505;46.070;14.492;2022-08-19T10:05:02;3.72;;;1.73;;
74152;SDS011;62505;46.070;14.492;2022-08-19T10:07:46;2.60;;;1.52;;
74152;SDS011;62505;46.070;14.492;2022-08-19T10:10:13;5.63;;;1.73;;
74152;SDS011;62505;46.070;14.492;2022-08-19T10:12:42;3.47;;;1.55;;
74152;SDS011;62505;46.070;14.492;2022-08-19T10:15:12;1.65;;;1.27;;
74152;SDS011;62505;46.070;14.492;2022-08-19T10:17:39;2.17;;;1.45;;
74152;SDS011;62505;46.070;14.492;2022-08-19T10:20:07;2.70;;;1.58;;
74152;SDS011;62505;46.070;14.492;2022-08-19T10:22:34;2.67;;;1.58;;
74152;SDS011;62505;46.070;14.492;2022-08-19T10:25:02;2.42;;;1.58;;
74152;SDS011;62505;46.070;14.492;2022-08-19T10:27:30;3.03;;;1.58;;
74152;SDS011;62505;46.070;14.492;2022-08-19T10:29:59;1.73;;;1.40;;
74152;SDS011;62505;46.070;14.492;2022-08-19T10:32:26;3.58;;;1.50;;
74152;SDS011;62505;46.070;14.492;2022-08-19T10:34:54;1.95;;;1.60;;
74152;SDS011;62505;46.070;14.492;2022-08-19T10:37:22;1.88;;;1.65;;
74152;SDS011;62505;46.070;14.492;2022-08-19T10:39:49;2.97;;;1.90;;
74152;SDS011;62505;46.070;14.492;2022-08-19T10:42:16;2.97;;;1.70;;
74152;SDS011;62505;46.070;14.492;2022-08-19T10:44:43;2.35;;;1.25;;
74152;SDS011;62505;46.070;14.492;2022-08-19T10:47:13;2.95;;;1.67;;
74152;SDS011;62505;46.070;14.492;2022-08-19T10:49:40;1.63;;;1.10;;
74152;SDS011;62505;46.070;14.492;2022-08-19T10:52:21;3.00;;;1.48;;
74152;SDS011;62505;46.070;14.492;2022-08-19T10:55:01;2.42;;;1.73;;
74152;SDS011;62505;46.070;14.492;2022-08-19T10:57:55;7.07;;;1.58;;
74152;SDS011;62505;46.070;14.492;2022-08-19T11:00:22;3.95;;;1.63;;
74152;SDS011;62505;46.070;14.492;2022-08-19T11:02:52;2.45;;;1.10;;
74152;SDS011;62505;46.070;14.492;2022-08-19T11:05:19;2.55;;;1.55;;
74152;SDS011;62505;46.070;14.492;2022-08-19T11:07:47;1.92;;;1.25;;
74152;SDS011;62505;46.070;14.492;2022-08-19T11:10:15;3.30;;;1.60;;
74152;SDS011;62505;46.070;14.492;2022-08-19T11:12:44;3.05;;;1.55;;
74152;SDS011;62505;46.070;14.492;2022-08-19T11:15:12;2.67;;;1.27;;
74152;SDS011;62505;46.070;14.492;2022-08-19T11:17:39;1.88;;;1.30;;
74152;SDS011;62505;46.070;14.492;2022-08-19T11:20:10;2.58;;;1.30;;
74152;SDS011;62505;46.070;14.492;2022-08-19T11:22:38;2.40;;;1.17;;
74152;SDS011;62505;46.070;14.492;2022-08-19T11:25:07;4.03;;;1.55;;
74152;SDS011;62505;46.070;14.492;2022-08-19T11:27:37;2.60;;;1.50;;
74152;SDS011;62505;46.070;14.492;2022-08-19T11:30:07;2.00;;;1.17;;
74152;SDS011;62505;46.070;14.492;2022-08-19T11:32:35;3.05;;;1.40;;
74152;SDS011;62505;46.070;14.492;2022-08-19T11:35:02;2.40;;;1.58;;
74152;SDS011;62505;46.070;14.492;2022-08-19T11:37:30;4.65;;;1.40;;
74152;SDS011;62505;46.070;14.492;2022-08-19T11:39:57;1.63;;;1.38;;
74152;SDS011;62505;46.070;14.492;2022-08-19T11:42:25;2.05;;;1.38;;
74152;SDS011;62505;46.070;14.492;2022-08-19T11:45:09;2.30;;;1.40;;
74152;SDS011;62505;46.070;14.492;2022-08-19T11:47:38;2.42;;;1.33;;
74152;SDS011;62505;46.070;14.492;2022-08-19T11:50:05;2.53;;;1.55;;
74152;SDS011;62505;46.070;14.492;2022-08-19T11:52:34;2.40;;;1.40;;
74152;SDS011;62505;46.070;14.492;2022-08-19T11:55:01;3.30;;;1.48;;
74152;SDS011;62505;46.070;14.492;2022-08-19T11:57:29;2.17;;;1.48;;
74152;SDS011;62505;46.070;14.492;2022-08-19T11:59:55;1.92;;;1.30;;
74152;SDS011;62505;46.070;14.492;2022-08-19T12:02:22;2.22;;;1.60;;
74152;SDS011;62505;46.070;14.492;2022-08-19T12:04:50;3.00;;;1.63;;
74152;SDS011;62505;46.070;14.492;2022-08-19T12:07:17;2.90;;;1.30;;
74152;SDS011;62505;46.070;14.492;2022-08-19T12:09:45;1.77;;;1.50;;
74152;SDS011;62505;46.070;14.492;2022-08-19T12:12:12;1.63;;;1.30;;
74152;SDS011;62505;46.070;14.492;2022-08-19T12:14:39;2.33;;;1.38;;
74152;SDS011;62505;46.070;14.492;2022-08-19T12:17:06;1.55;;;1.30;;
74152;SDS011;62505;46.070;14.492;2022-08-19T12:19:35;2.55;;;1.40;;
74152;SDS011;62505;46.070;14.492;2022-08-19T12:22:04;1.90;;;1.10;;
74152;SDS011;62505;46.070;14.492;2022-08-19T12:24:32;2.42;;;1.40;;
74152;SDS011;62505;46.070;14.492;2022-08-19T12:27:01;2.65;;;1.40;;
74152;SDS011;62505;46.070;14.492;2022-08-19T12:29:28;1.73;;;1.27;;
74152;SDS011;62505;46.070;14.492;2022-08-19T12:31:56;2.15;;;1.20;;
74152;SDS011;62505;46.070;14.492;2022-08-19T12:34:26;3.08;;;1.20;;
74152;SDS011;62505;46.070;14.492;2022-08-19T12:36:56;3.53;;;1.38;;
74152;SDS011;62505;46.070;14.492;2022-08-19T12:39:23;2.17;;;1.33;;
74152;SDS011;62505;46.070;14.492;2022-08-19T12:41:51;2.40;;;1.40;;
74152;SDS011;62505;46.070;14.492;2022-08-19T12:44:19;2.35;;;1.30;;
74152;SDS011;62505;46.070;14.492;2022-08-19T12:46:47;2.42;;;1.40;;
74152;SDS011;62505;46.070;14.492;2022-08-19T12:49:14;1.63;;;1.40;;
74152;SDS011;62505;46.070;14.492;2022-08-19T12:51:41;1.77;;;1.23;;
74152;SDS011;62505;46.070;14.492;2022-08-19T12:54:08;2.72;;;1.30;;
74152;SDS011;62505;46.070;14.492;2022-08-19T12:56:36;1.20;;;1.10;;
74152;SDS011;62505;46.070;14.492;2022-08-19T12:59:03;2.47;;;1.60;;
74152;SDS011;62505;46.070;14.492;2022-08-19T13:01:34;2.38;;;1.50;;
74152;SDS011;62505;46.070;14.492;2022-08-19T13:04:01;2.20;;;1.45;;
74152;SDS011;62505;46.070;14.492;2022-08-19T13:06:28;1.90;;;1.20;;
74152;SDS011;62505;46.070;14.492;2022-08-19T13:08:55;1.50;;;1.27;;
74152;SDS011;62505;46.070;14.492;2022-08-19T13:11:22;2.42;;;1.35;;
74152;SDS011;62505;46.070;14.492;2022-08-19T13:13:50;2.03;;;1.33;;
74152;SDS011;62505;46.070;14.492;2022-08-19T13:16:20;1.63;;;1.15;;
74152;SDS011;62505;46.070;14.492;2022-08-19T13:18:48;1.48;;;1.25;;
74152;SDS011;62505;46.070;14.492;2022-08-19T13:21:16;2.17;;;1.00;;
74152;SDS011;62505;46.070;14.492;2022-08-19T13:23:45;2.28;;;1.10;;
74152;SDS011;62505;46.070;14.492;2022-08-19T13:26:12;3.25;;;1.23;;
74152;SDS011;62505;46.070;14.492;2022-08-19T13:28:41;2.38;;;1.38;;
74152;SDS011;62505;46.070;14.492;2022-08-19T13:31:30;2.65;;;1.40;;
74152;SDS011;62505;46.070;14.492;2022-08-19T13:34:17;2.78;;;1.15;;
74152;SDS011;62505;46.070;14.492;2022-08-19T13:36:46;1.77;;;1.52;;
74152;SDS011;62505;46.070;14.492;2022-08-19T13:39:13;2.72;;;1.60;;
74152;SDS011;62505;46.070;14.492;2022-08-19T13:41:42;2.35;;;1.20;;
74152;SDS011;62505;46.070;14.492;2022-08-19T13:44:12;1.20;;;1.00;;
74152;SDS011;62505;46.070;14.492;2022-08-19T13:46:40;2.50;;;1.20;;
74152;SDS011;62505;46.070;14.492;2022-08-19T13:49:09;2.92;;;1.58;;
74152;SDS011;62505;46.070;14.492;2022-08-19T13:51:38;1.55;;;1.25;;
74152;SDS011;62505;46.070;14.492;2022-08-19T13:54:05;1.75;;;1.25;;
74152;SDS011;62505;46.070;14.492;2022-08-19T13:56:33;2.85;;;1.67;;
74152;SDS011;62505;46.070;14.492;2022-08-19T13:59:01;1.77;;;1.30;;
74152;SDS011;62505;46.070;14.492;2022-08-19T14:01:28;1.77;;;1.15;;
74152;SDS011;62505;46.070;14.492;2022-08-19T14:03:55;2.03;;;1.50;;
74152;SDS011;62505;46.070;14.492;2022-08-19T14:06:22;2.42;;;1.10;;
74152;SDS011;62505;46.070;14.492;2022-08-19T14:08:51;1.73;;;1.20;;
74152;SDS011;62505;46.070;14.492;2022-08-19T14:11:18;1.92;;;1.30;;
74152;SDS011;62505;46.070;14.492;2022-08-19T14:13:47;1.27;;;1.13;;
74152;SDS011;62505;46.070;14.492;2022-08-19T14:16:15;3.38;;;1.20;;
74152;SDS011;62505;46.070;14.492;2022-08-19T14:18:42;2.03;;;1.20;;
74152;SDS011;62505;46.070;14.492;2022-08-19T14:21:14;2.22;;;1.40;;
74152;SDS011;62505;46.070;14.492;2022-08-19T14:23:42;1.67;;;1.10;;
74152;SDS011;62505;46.070;14.492;2022-08-19T14:26:12;1.58;;;1.20;;
74152;SDS011;62505;46.070;14.492;2022-08-19T14:28:42;1.70;;;1.20;;
74152;SDS011;62505;46.070;14.492;2022-08-19T14:31:10;2.10;;;1.40;;
74152;SDS011;62505;46.070;14.492;2022-08-19T14:33:38;1.55;;;1.20;;
74152;SDS011;62505;46.070;14.492;2022-08-19T14:36:05;1.20;;;1.10;;
74152;SDS011;62505;46.070;14.492;2022-08-19T14:38:32;1.45;;;1.30;;
74152;SDS011;62505;46.070;14.492;2022-08-19T14:41:07;2.50;;;1.27;;
74152;SDS011;62505;46.070;14.492;2022-08-19T14:43:42;1.63;;;1.05;;